createdAt,value
2023-05-19T00:01:00.618Z,35.98
2023-05-19T00:03:29.119Z,35.98
2023-05-19T00:05:58.824Z,36.03
2023-05-19T00:08:31.205Z,36.17
2023-05-19T00:10:59.397Z,36.12
2023-05-19T00:13:28.193Z,36.08
2023-05-19T00:15:56.321Z,36.17
2023-05-19T00:18:24.178Z,36.23
2023-05-19T00:20:52.427Z,36.48
2023-05-19T00:23:20.325Z,36.28
2023-05-19T00:25:48.100Z,36.36
2023-05-19T00:28:16.167Z,36.10
2023-05-19T00:30:43.981Z,36.33
2023-05-19T00:33:11.860Z,36.46
2023-05-19T00:35:40.724Z,36.54
2023-05-19T00:38:08.578Z,36.63
2023-05-19T00:40:36.577Z,36.49
2023-05-19T00:43:05.640Z,36.68
2023-05-19T00:45:33.522Z,36.73
2023-05-19T00:48:01.403Z,36.64
2023-05-19T00:50:29.349Z,36.75
2023-05-19T00:52:57.923Z,36.88
2023-05-19T00:55:29.252Z,36.92
2023-05-19T00:57:57.669Z,36.98
2023-05-19T01:00:25.568Z,36.96
2023-05-19T01:02:54.326Z,37.08
2023-05-19T01:05:22.342Z,37.13
2023-05-19T01:07:55.554Z,37.15
2023-05-19T01:10:23.360Z,36.96
2023-05-19T01:12:51.188Z,37.14
2023-05-19T01:15:19.609Z,37.11
2023-05-19T01:18:11.702Z,37.35
2023-05-19T01:20:52.487Z,37.70
2023-05-19T01:24:22.950Z,38.13
2023-05-19T01:27:34.612Z,38.24
2023-05-19T01:30:39.968Z,38.43
2023-05-19T01:33:14.077Z,38.28
2023-05-19T01:35:44.113Z,38.43
2023-05-19T01:38:14.804Z,38.55
2023-05-19T01:40:44.055Z,38.73
2023-05-19T01:43:20.941Z,38.66
2023-05-19T01:45:49.947Z,38.75
2023-05-19T01:48:18.892Z,38.73
2023-05-19T01:50:47.196Z,39.07
2023-05-19T01:53:16.593Z,39.18
2023-05-19T01:55:52.211Z,39.33
2023-05-19T01:58:48.036Z,39.08
2023-05-19T02:01:44.875Z,39.21
2023-05-19T02:04:15.729Z,39.30
2023-05-19T02:07:34.439Z,39.42
2023-05-19T02:10:16.314Z,39.36
2023-05-19T02:12:46.098Z,39.38
2023-05-19T02:15:21.999Z,39.44
2023-05-19T02:17:54.380Z,39.37
2023-05-19T02:20:22.444Z,39.35
2023-05-19T02:22:50.468Z,39.49
2023-05-19T02:25:18.348Z,39.43
2023-05-19T02:27:46.456Z,39.69
2023-05-19T02:30:14.269Z,39.42
2023-05-19T02:32:42.110Z,39.53
2023-05-19T02:35:10.702Z,39.63
2023-05-19T02:37:38.772Z,39.69
2023-05-19T02:40:09.033Z,39.72
2023-05-19T02:42:36.901Z,39.46
2023-05-19T02:45:05.617Z,39.72
2023-05-19T02:47:35.456Z,39.94
2023-05-19T02:50:06.348Z,39.74
2023-05-19T02:52:34.239Z,39.82
2023-05-19T02:55:02.103Z,39.78
2023-05-19T02:57:31.752Z,39.80
2023-05-19T02:59:59.790Z,39.88
2023-05-19T03:02:27.724Z,40.02
2023-05-19T03:04:55.671Z,40.07
2023-05-19T03:07:25.297Z,40.04
2023-05-19T03:09:53.285Z,40.16
2023-05-19T03:12:21.891Z,40.21
2023-05-19T03:14:49.873Z,40.36
2023-05-19T03:17:17.751Z,40.25
2023-05-19T03:19:45.579Z,40.40
2023-05-19T03:22:13.521Z,40.43
2023-05-19T03:24:41.377Z,40.57
2023-05-19T03:27:09.184Z,40.66
2023-05-19T03:29:37.987Z,40.82
2023-05-19T03:32:06.021Z,40.83
2023-05-19T03:34:35.426Z,40.89
2023-05-19T03:37:03.685Z,41.09
2023-05-19T03:39:31.626Z,41.21
2023-05-19T03:41:59.540Z,41.49
2023-05-19T03:44:27.337Z,41.58
2023-05-19T03:46:55.260Z,41.77
2023-05-19T03:49:48.889Z,41.93
2023-05-19T03:52:19.470Z,42.09
2023-05-19T03:54:58.709Z,42.26
2023-05-19T03:57:26.952Z,42.43
2023-05-19T03:59:54.976Z,42.51
2023-05-19T04:02:22.850Z,42.67
2023-05-19T04:04:51.236Z,42.80
2023-05-19T04:07:19.260Z,42.90
2023-05-19T04:09:48.587Z,42.89
2023-05-19T04:12:16.397Z,43.22
2023-05-19T04:14:44.254Z,43.11
2023-05-19T04:17:12.139Z,43.22
2023-05-19T04:19:40.363Z,43.26
2023-05-19T04:22:08.188Z,43.33
2023-05-19T04:24:36.176Z,43.32
2023-05-19T04:27:04.888Z,43.35
2023-05-19T04:29:32.724Z,43.32
2023-05-19T04:32:01.059Z,43.30
2023-05-19T04:34:29.164Z,43.19
2023-05-19T04:36:57.469Z,43.22
2023-05-19T04:39:25.671Z,43.18
2023-05-19T04:41:56.683Z,43.15
2023-05-19T04:44:24.896Z,43.21
2023-05-19T04:46:54.464Z,43.09
2023-05-19T04:49:28.632Z,43.16
2023-05-19T04:51:56.611Z,42.96
2023-05-19T04:54:28.612Z,43.19
2023-05-19T04:56:57.052Z,43.20
2023-05-19T04:59:27.115Z,43.19
2023-05-19T05:01:56.220Z,43.11
2023-05-19T05:04:25.951Z,43.11
2023-05-19T05:06:54.430Z,43.40
2023-05-19T05:09:23.109Z,43.35
2023-05-19T05:11:51.741Z,43.30
2023-05-19T05:14:20.783Z,43.24
2023-05-19T05:16:49.895Z,43.31
2023-05-19T05:19:23.069Z,43.28
2023-05-19T05:21:52.221Z,43.40
2023-05-19T05:24:21.229Z,43.34
2023-05-19T05:26:54.372Z,43.40
2023-05-19T05:29:22.232Z,43.46
2023-05-19T05:31:50.492Z,43.39
2023-05-19T05:34:18.550Z,43.40
2023-05-19T05:36:46.373Z,43.50
2023-05-19T05:39:14.193Z,43.53
2023-05-19T05:41:43.649Z,43.79
2023-05-19T05:44:13.195Z,43.80
2023-05-19T05:46:43.653Z,43.86
2023-05-19T05:49:13.457Z,43.80
2023-05-19T05:51:54.270Z,43.76
2023-05-19T05:54:31.312Z,43.69
2023-05-19T05:56:59.778Z,43.77
2023-05-19T05:59:27.674Z,43.75
2023-05-19T06:01:55.713Z,43.76
2023-05-19T06:04:27.599Z,43.61
2023-05-19T06:07:01.058Z,43.48
2023-05-19T06:09:32.876Z,43.24
2023-05-19T06:12:01.066Z,43.23
2023-05-19T06:14:33.401Z,43.16
2023-05-19T06:17:19.427Z,43.00
2023-05-19T06:19:48.497Z,42.98
2023-05-19T06:22:16.451Z,43.32
2023-05-19T06:24:45.052Z,43.42
2023-05-19T06:27:13.552Z,43.50
2023-05-19T06:29:41.357Z,43.45
2023-05-19T06:32:10.260Z,43.45
2023-05-19T06:34:40.556Z,43.44
2023-05-19T06:37:08.613Z,43.43
2023-05-19T06:39:38.055Z,43.33
2023-05-19T06:42:06.055Z,43.40
2023-05-19T06:44:52.358Z,43.64
2023-05-19T06:47:20.272Z,43.54
2023-05-19T06:49:51.647Z,43.29
2023-05-19T06:52:19.517Z,42.89
2023-05-19T06:54:50.893Z,42.59
2023-05-19T06:57:19.661Z,42.07
2023-05-19T06:59:47.518Z,41.91
2023-05-19T07:02:16.037Z,41.69
2023-05-19T07:04:43.873Z,41.53
2023-05-19T07:07:14.626Z,41.24
2023-05-19T07:09:45.017Z,40.96
2023-05-19T07:12:13.021Z,40.76
2023-05-19T07:14:41.153Z,40.63
2023-05-19T07:17:09.313Z,40.33
2023-05-19T07:19:39.138Z,40.08
2023-05-19T07:22:07.110Z,39.98
2023-05-19T07:24:35.118Z,39.40
2023-05-19T07:27:03.010Z,39.31
2023-05-19T07:29:31.145Z,39.05
2023-05-19T07:31:58.976Z,38.91
2023-05-19T07:34:26.861Z,38.89
2023-05-19T07:36:55.200Z,38.75
2023-05-19T07:39:25.293Z,38.75
2023-05-19T07:41:55.685Z,38.37
2023-05-19T07:44:23.542Z,38.14
2023-05-19T07:46:51.296Z,38.07
2023-05-19T07:49:22.732Z,38.24
2023-05-19T07:51:52.777Z,37.71
2023-05-19T07:54:21.339Z,37.52
2023-05-19T07:56:49.349Z,37.41
2023-05-19T07:59:17.247Z,37.77
2023-05-19T08:01:45.647Z,37.33
2023-05-19T08:04:14.081Z,37.27
2023-05-19T08:06:44.608Z,37.28
2023-05-19T08:09:12.514Z,37.32
2023-05-19T08:11:40.300Z,36.95
2023-05-19T08:14:08.096Z,36.99
2023-05-19T08:16:35.960Z,36.83
2023-05-19T08:19:06.790Z,36.92
2023-05-19T08:21:35.532Z,37.05
2023-05-19T08:24:04.352Z,36.99
2023-05-19T08:26:32.174Z,36.83
2023-05-19T08:29:00.068Z,36.93
2023-05-19T08:31:28.495Z,36.81
2023-05-19T08:33:56.625Z,36.53
2023-05-19T08:36:24.885Z,36.66
2023-05-19T08:38:52.706Z,36.52
2023-05-19T08:41:21.608Z,36.42
2023-05-19T08:43:50.225Z,36.27
2023-05-19T08:46:19.091Z,36.23
2023-05-19T08:48:48.650Z,35.99
2023-05-19T08:51:36.011Z,35.35
2023-05-19T08:54:14.562Z,35.30
2023-05-19T08:56:45.541Z,35.52
2023-05-19T08:59:17.436Z,35.24
2023-05-19T09:01:47.020Z,35.18
2023-05-19T09:04:17.532Z,34.86
2023-05-19T09:06:45.483Z,34.70
2023-05-19T09:09:13.509Z,34.72
2023-05-19T09:11:45.286Z,34.43
2023-05-19T09:14:13.112Z,34.21
2023-05-19T09:16:41.874Z,34.14
2023-05-19T09:19:15.906Z,33.72
2023-05-19T09:21:45.779Z,33.71
2023-05-19T09:24:13.880Z,33.42
2023-05-19T09:26:43.097Z,33.16
2023-05-19T09:29:17.593Z,33.18
2023-05-19T09:32:00.496Z,33.13
2023-05-19T09:34:31.163Z,32.97
2023-05-19T09:36:59.866Z,32.84
2023-05-19T09:39:28.910Z,32.75
2023-05-19T09:41:58.739Z,32.73
2023-05-19T09:44:31.240Z,32.94
2023-05-19T09:47:00.188Z,32.66
2023-05-19T09:49:30.288Z,32.59
2023-05-19T09:52:00.528Z,32.59
2023-05-19T09:54:29.904Z,32.31
2023-05-19T09:57:05.192Z,32.13
2023-05-19T09:59:35.764Z,32.17
2023-05-19T10:02:04.088Z,31.83
2023-05-19T10:04:32.435Z,31.66
2023-05-19T10:07:05.620Z,31.65
2023-05-19T10:09:36.356Z,31.75
2023-05-19T10:12:05.632Z,31.67
2023-05-19T10:14:33.413Z,31.76
2023-05-19T10:17:01.785Z,31.60
2023-05-19T10:19:30.172Z,31.56
2023-05-19T10:22:00.043Z,31.69
2023-05-19T10:24:27.884Z,31.55
2023-05-19T10:27:05.105Z,31.42
2023-05-19T10:29:39.033Z,31.23
2023-05-19T10:32:24.789Z,31.08
2023-05-19T10:35:20.518Z,31.27
2023-05-19T10:38:35.036Z,31.31
2023-05-19T10:41:21.558Z,31.04
2023-05-19T10:44:17.312Z,31.42
2023-05-19T10:46:45.137Z,31.29
2023-05-19T10:49:23.801Z,30.53
2023-05-19T10:51:58.637Z,30.48
2023-05-19T10:54:47.382Z,30.68
2023-05-19T10:57:18.045Z,30.55
2023-05-19T10:59:45.993Z,30.37
2023-05-19T11:02:57.847Z,30.22
2023-05-19T11:05:29.935Z,30.18
2023-05-19T11:08:09.074Z,30.29
2023-05-19T11:10:37.049Z,30.04
2023-05-19T11:13:06.484Z,30.06
2023-05-19T11:15:37.650Z,29.90
2023-05-19T11:18:07.137Z,29.73
2023-05-19T11:20:39.525Z,29.82
2023-05-19T11:23:09.022Z,29.79
2023-05-19T11:25:55.113Z,29.98
2023-05-19T11:28:27.694Z,30.05
2023-05-19T11:31:00.566Z,29.96
2023-05-19T11:33:32.553Z,30.18
2023-05-19T11:36:00.388Z,30.00
2023-05-19T11:38:30.149Z,30.13
2023-05-19T11:40:58.335Z,29.74
2023-05-19T11:43:26.437Z,30.00
2023-05-19T11:45:55.888Z,30.08
2023-05-19T11:48:26.328Z,29.87
2023-05-19T11:50:54.450Z,29.87
2023-05-19T11:53:23.447Z,29.82
2023-05-19T11:55:51.791Z,29.90
2023-05-19T11:58:26.895Z,29.92
2023-05-19T12:00:55.883Z,29.82
2023-05-19T12:03:28.803Z,29.67
2023-05-19T12:05:56.887Z,29.64
2023-05-19T12:08:25.616Z,29.66
2023-05-19T12:10:54.114Z,29.47
2023-05-19T12:13:22.926Z,29.54
2023-05-19T12:15:52.801Z,29.40
2023-05-19T12:18:21.205Z,29.07
2023-05-19T12:20:49.184Z,29.22
2023-05-19T12:23:17.244Z,29.44
2023-05-19T12:25:45.300Z,28.98
2023-05-19T12:28:13.083Z,29.09
2023-05-19T12:30:41.391Z,28.94
2023-05-19T12:33:10.979Z,28.88
2023-05-19T12:35:38.891Z,28.87
2023-05-19T12:38:09.520Z,29.14
2023-05-19T12:40:42.280Z,29.12
2023-05-19T12:43:23.057Z,29.20
2023-05-19T12:45:52.814Z,28.98
2023-05-19T12:48:22.946Z,29.18
2023-05-19T12:50:55.930Z,29.54
2023-05-19T12:53:28.211Z,29.13
2023-05-19T12:55:56.293Z,29.26
2023-05-19T12:58:24.328Z,29.17
2023-05-19T13:00:59.757Z,28.98
2023-05-19T13:03:27.715Z,29.37
2023-05-19T13:05:57.110Z,29.05
2023-05-19T13:08:24.980Z,29.34
2023-05-19T13:10:52.870Z,29.49
2023-05-19T13:13:20.716Z,29.71
2023-05-19T13:15:49.182Z,29.46
2023-05-19T13:18:18.169Z,29.91
2023-05-19T13:20:47.115Z,29.72
2023-05-19T13:23:16.235Z,29.90
2023-05-19T13:25:46.044Z,29.89
2023-05-19T13:28:13.978Z,30.28
2023-05-19T13:30:43.752Z,30.14
2023-05-19T13:33:12.041Z,30.34
2023-05-19T13:35:42.011Z,30.58
2023-05-19T13:38:10.745Z,30.25
2023-05-19T13:40:39.830Z,30.57
2023-05-19T13:43:08.581Z,30.84
2023-05-19T13:45:36.819Z,30.92
2023-05-19T13:48:07.208Z,30.41
2023-05-19T13:50:36.031Z,30.67
2023-05-19T13:53:04.055Z,30.40
2023-05-19T13:55:33.284Z,30.46
2023-05-19T13:58:01.209Z,30.47
2023-05-19T14:00:29.555Z,30.49
2023-05-19T14:03:00.296Z,30.60
2023-05-19T14:05:29.066Z,30.35
2023-05-19T14:07:57.112Z,30.41
2023-05-19T14:10:25.097Z,30.38
2023-05-19T14:13:28.931Z,30.49
2023-05-19T14:15:46.512Z,30.81
2023-05-19T14:18:16.546Z,30.71
2023-05-19T14:20:44.412Z,30.84
2023-05-19T14:23:12.420Z,30.98
2023-05-19T14:25:40.365Z,31.11
2023-05-19T14:28:08.258Z,30.98
2023-05-19T14:30:37.602Z,30.64
2023-05-19T14:33:05.492Z,30.65
2023-05-19T14:35:33.376Z,30.50
2023-05-19T14:38:01.162Z,30.86
2023-05-19T14:40:28.966Z,30.65
2023-05-19T14:42:57.074Z,30.95
2023-05-19T14:45:24.938Z,30.55
2023-05-19T14:47:53.025Z,30.83
2023-05-19T14:50:20.960Z,30.77
2023-05-19T14:52:48.763Z,30.92
2023-05-19T14:55:17.514Z,30.76
2023-05-19T14:57:46.020Z,31.02
2023-05-19T15:00:14.414Z,30.82
2023-05-19T15:02:42.376Z,30.93
2023-05-19T15:05:11.393Z,30.91
2023-05-19T15:07:39.175Z,30.94
2023-05-19T15:10:07.678Z,30.87
2023-05-19T15:12:35.573Z,30.85
2023-05-19T15:15:03.873Z,30.88
2023-05-19T15:17:32.460Z,30.96
2023-05-19T15:20:00.499Z,31.07
2023-05-19T15:22:28.256Z,30.97
2023-05-19T15:24:56.087Z,30.86
2023-05-19T15:27:23.847Z,30.93
2023-05-19T15:29:52.068Z,31.02
2023-05-19T15:32:20.225Z,30.93
2023-05-19T15:34:48.041Z,31.04
2023-05-19T15:37:15.926Z,30.99
2023-05-19T15:39:43.751Z,31.41
2023-05-19T15:42:11.506Z,31.24
2023-05-19T15:44:39.279Z,31.60
2023-05-19T15:47:07.060Z,31.37
2023-05-19T15:49:34.899Z,31.22
2023-05-19T15:52:04.272Z,31.28
2023-05-19T15:54:32.053Z,31.27
2023-05-19T15:56:59.790Z,31.32
2023-05-19T15:59:27.566Z,31.16
2023-05-19T16:01:55.528Z,31.13
2023-05-19T16:04:23.433Z,31.30
2023-05-19T16:06:51.335Z,31.55
2023-05-19T16:09:19.141Z,31.54
2023-05-19T16:11:46.894Z,31.72
2023-05-19T16:14:14.799Z,31.38
2023-05-19T16:16:44.410Z,31.67
2023-05-19T16:19:12.273Z,31.80
2023-05-19T16:21:40.138Z,31.83
2023-05-19T16:24:08.033Z,31.72
2023-05-19T16:26:35.819Z,31.68
2023-05-19T16:29:03.786Z,31.46
2023-05-19T16:31:31.693Z,31.73
2023-05-19T16:33:59.443Z,31.89
2023-05-19T16:36:27.398Z,31.62
2023-05-19T16:38:55.191Z,31.85
2023-05-19T16:41:22.941Z,31.67
2023-05-19T16:43:50.673Z,31.68
2023-05-19T16:46:18.667Z,31.88
2023-05-19T16:48:46.551Z,31.89
2023-05-19T16:51:15.251Z,32.04
2023-05-19T16:53:42.989Z,31.86
2023-05-19T16:56:11.557Z,31.88
2023-05-19T16:58:39.393Z,31.99
2023-05-19T17:01:07.327Z,31.85
2023-05-19T17:03:35.982Z,32.14
2023-05-19T17:06:03.883Z,32.11
2023-05-19T17:08:31.748Z,32.36
2023-05-19T17:10:59.462Z,32.16
2023-05-19T17:13:28.721Z,32.51
2023-05-19T17:15:56.721Z,32.37
2023-05-19T17:18:24.508Z,32.52
2023-05-19T17:20:52.278Z,32.56
2023-05-19T17:23:20.069Z,32.66
2023-05-19T17:25:48.280Z,32.56
2023-05-19T17:28:16.039Z,32.80
2023-05-19T17:30:43.781Z,32.69
2023-05-19T17:33:11.592Z,32.73
2023-05-19T17:35:41.193Z,32.52
2023-05-19T17:38:09.031Z,32.81
2023-05-19T17:40:37.146Z,32.85
2023-05-19T17:43:06.124Z,32.57
2023-05-19T17:45:34.225Z,32.66
2023-05-19T17:48:02.088Z,32.58
2023-05-19T17:50:29.849Z,32.70
2023-05-19T17:52:59.930Z,32.73
2023-05-19T17:55:30.298Z,32.77
2023-05-19T17:57:58.527Z,32.58
2023-05-19T18:00:26.847Z,32.72
2023-05-19T18:02:57.021Z,32.75
2023-05-19T18:05:25.776Z,32.81
2023-05-19T18:07:57.529Z,32.64
2023-05-19T18:10:27.381Z,33.07
2023-05-19T18:12:56.553Z,33.48
2023-05-19T18:15:24.467Z,34.11
2023-05-19T18:17:52.681Z,34.33
2023-05-19T18:20:20.665Z,34.94
2023-05-19T18:22:50.083Z,35.50
2023-05-19T18:25:19.946Z,35.63
2023-05-19T18:27:47.813Z,35.88
2023-05-19T18:30:15.815Z,35.97
2023-05-19T18:32:43.641Z,36.04
2023-05-19T18:35:11.631Z,35.95
2023-05-19T18:37:39.540Z,36.05
2023-05-19T18:40:08.774Z,36.15
2023-05-19T18:42:36.846Z,36.38
2023-05-19T18:45:06.292Z,36.40
2023-05-19T18:47:35.880Z,36.23
2023-05-19T18:50:08.101Z,36.49
2023-05-19T18:52:37.164Z,36.50
2023-05-19T18:55:07.226Z,36.56
2023-05-19T18:57:35.496Z,36.86
2023-05-19T19:00:04.314Z,37.01
2023-05-19T19:02:32.324Z,37.21
2023-05-19T19:05:04.062Z,37.38
2023-05-19T19:07:32.242Z,37.53
2023-05-19T19:10:00.130Z,37.89
2023-05-19T19:12:28.758Z,37.85
2023-05-19T19:14:56.801Z,37.92
2023-05-19T19:17:25.112Z,37.91
2023-05-19T19:19:53.372Z,38.04
2023-05-19T19:22:21.530Z,38.10
2023-05-19T19:24:49.465Z,38.11
2023-05-19T19:27:17.781Z,38.12
2023-05-19T19:29:47.546Z,38.18
2023-05-19T19:32:16.420Z,38.32
2023-05-19T19:34:46.293Z,38.33
2023-05-19T19:37:14.583Z,38.53
2023-05-19T19:39:42.472Z,38.58
2023-05-19T19:42:10.535Z,38.64
2023-05-19T19:44:38.699Z,38.76
2023-05-19T19:47:06.840Z,38.83
2023-05-19T19:49:35.607Z,39.01
2023-05-19T19:52:03.879Z,38.98
2023-05-19T19:54:32.685Z,39.22
2023-05-19T19:57:02.537Z,39.47
2023-05-19T19:59:30.680Z,39.78
2023-05-19T20:02:01.049Z,40.07
2023-05-19T20:04:29.477Z,40.05
2023-05-19T20:06:57.966Z,40.22
2023-05-19T20:09:26.397Z,40.47
2023-05-19T20:11:54.238Z,40.77
2023-05-19T20:14:22.336Z,40.92
2023-05-19T20:16:50.139Z,41.02
2023-05-19T20:19:18.302Z,41.03
2023-05-19T20:21:46.880Z,41.16
2023-05-19T20:24:14.764Z,40.96
2023-05-19T20:26:42.979Z,41.27
2023-05-19T20:29:11.024Z,41.20
2023-05-19T20:31:39.009Z,41.33
2023-05-19T20:34:07.049Z,41.36
2023-05-19T20:36:35.136Z,41.51
2023-05-19T20:39:03.739Z,41.41
2023-05-19T20:41:32.056Z,41.60
2023-05-19T20:44:00.114Z,41.45
2023-05-19T20:46:28.757Z,41.49
2023-05-19T20:48:56.644Z,41.48
2023-05-19T20:51:25.361Z,41.71
2023-05-19T20:53:53.707Z,41.55
2023-05-19T20:56:22.590Z,41.60
2023-05-19T20:58:50.563Z,41.63
2023-05-19T21:01:18.292Z,41.68
2023-05-19T21:03:46.109Z,41.75
2023-05-19T21:06:15.841Z,41.92
2023-05-19T21:08:43.641Z,41.87
2023-05-19T21:11:11.396Z,41.87
2023-05-19T21:13:39.365Z,41.66
2023-05-19T21:16:07.514Z,41.41
2023-05-19T21:18:35.433Z,41.46
2023-05-19T21:21:04.222Z,41.50
2023-05-19T21:23:32.145Z,41.34
2023-05-19T21:26:00.287Z,41.60
2023-05-19T21:28:28.119Z,41.54
2023-05-19T21:30:56.039Z,41.79
2023-05-19T21:33:23.825Z,41.75
2023-05-19T21:35:51.538Z,41.55
2023-05-19T21:38:23.853Z,41.84
2023-05-19T21:40:53.288Z,41.74
2023-05-19T21:43:21.909Z,42.14
2023-05-19T21:45:49.834Z,42.01
2023-05-19T21:48:17.858Z,42.13
2023-05-19T21:50:45.634Z,42.70
2023-05-19T21:53:13.372Z,42.83
2023-05-19T21:55:41.190Z,42.65
2023-05-19T21:58:09.041Z,42.75
2023-05-19T22:00:37.070Z,42.91
2023-05-19T22:03:05.214Z,43.15
2023-05-19T22:05:35.202Z,42.96
2023-05-19T22:08:03.650Z,43.31
2023-05-19T22:10:31.973Z,43.29
2023-05-19T22:12:59.961Z,43.13
2023-05-19T22:15:28.693Z,43.57
2023-05-19T22:17:56.558Z,43.55
2023-05-19T22:20:24.737Z,43.44
2023-05-19T22:22:52.635Z,43.52
2023-05-19T22:25:20.469Z,43.72
2023-05-19T22:27:48.246Z,43.96
2023-05-19T22:30:16.553Z,44.00
2023-05-19T22:32:44.340Z,44.12
2023-05-19T22:35:12.624Z,44.28
2023-05-19T22:37:40.414Z,44.11
2023-05-19T22:40:08.887Z,44.51
2023-05-19T22:42:36.790Z,44.38
2023-05-19T22:45:05.524Z,44.47
2023-05-19T22:47:33.342Z,44.78
2023-05-19T22:50:01.181Z,44.48
2023-05-19T22:52:28.944Z,44.39
2023-05-19T22:54:57.113Z,44.59
2023-05-19T22:57:24.857Z,44.55
2023-05-19T22:59:52.650Z,44.40
2023-05-19T23:02:20.376Z,44.48
2023-05-19T23:04:48.137Z,44.51
2023-05-19T23:07:16.149Z,44.24
2023-05-19T23:09:43.915Z,44.10
2023-05-19T23:12:11.641Z,43.91
2023-05-19T23:14:39.484Z,43.67
2023-05-19T23:17:07.392Z,43.38
2023-05-19T23:19:36.874Z,43.15
2023-05-19T23:22:04.795Z,42.76
2023-05-19T23:24:32.638Z,42.40
2023-05-19T23:27:01.190Z,41.99
2023-05-19T23:29:29.061Z,41.79
2023-05-19T23:31:56.873Z,41.56
2023-05-19T23:34:24.664Z,41.68
2023-05-19T23:36:52.399Z,41.26
2023-05-19T23:39:21.880Z,41.48
2023-05-19T23:41:49.654Z,41.20
2023-05-19T23:44:18.773Z,41.35
2023-05-19T23:46:46.623Z,41.19
2023-05-19T23:49:14.634Z,41.18
2023-05-19T23:51:42.451Z,41.25
2023-05-19T23:54:10.329Z,41.11
2023-05-19T23:56:38.116Z,40.83
2023-05-19T23:59:06.026Z,40.89
